sensor_id;sensor_type;location;lat;lon;timestamp;P1;durP1;ratioP1;P2;durP2;ratioP2
68653;SDS011;55636;51.108;13.622;2022-12-18T00:00:28;25.00;;;16.50;;
68653;SDS011;55636;51.108;13.622;2022-12-18T00:01:31;21.38;;;15.57;;
68653;SDS011;55636;51.108;13.622;2022-12-18T00:02:35;21.92;;;15.32;;
68653;SDS011;55636;51.108;13.622;2022-12-18T00:03:38;22.73;;;15.70;;
68653;SDS011;55636;51.108;13.622;2022-12-18T00:04:43;18.83;;;13.95;;
68653;SDS011;55636;51.108;13.622;2022-12-18T00:05:46;22.25;;;15.05;;
68653;SDS011;55636;51.108;13.622;2022-12-18T00:06:52;21.15;;;14.60;;
68653;SDS011;55636;51.108;13.622;2022-12-18T00:07:55;21.85;;;15.20;;
68653;SDS011;55636;51.108;13.622;2022-12-18T00:09:02;20.60;;;15.00;;
68653;SDS011;55636;51.108;13.622;2022-12-18T00:10:05;22.38;;;15.85;;
68653;SDS011;55636;51.108;13.622;2022-12-18T00:11:10;21.98;;;15.02;;
68653;SDS011;55636;51.108;13.622;2022-12-18T00:12:13;18.13;;;13.88;;
68653;SDS011;55636;51.108;13.622;2022-12-18T00:13:16;20.63;;;14.18;;
68653;SDS011;55636;51.108;13.622;2022-12-18T00:14:18;18.55;;;13.55;;
68653;SDS011;55636;51.108;13.622;2022-12-18T00:15:24;20.38;;;13.80;;
68653;SDS011;55636;51.108;13.622;2022-12-18T00:16:27;20.38;;;14.07;;
68653;SDS011;55636;51.108;13.622;2022-12-18T00:17:31;19.77;;;13.85;;
68653;SDS011;55636;51.108;13.622;2022-12-18T00:18:34;18.92;;;13.05;;
68653;SDS011;55636;51.108;13.622;2022-12-18T00:19:37;17.55;;;13.25;;
68653;SDS011;55636;51.108;13.622;2022-12-18T00:20:39;18.30;;;13.43;;
68653;SDS011;55636;51.108;13.622;2022-12-18T00:21:42;18.92;;;13.13;;
68653;SDS011;55636;51.108;13.622;2022-12-18T00:22:45;17.60;;;12.63;;
68653;SDS011;55636;51.108;13.622;2022-12-18T00:23:48;20.75;;;14.70;;
68653;SDS011;55636;51.108;13.622;2022-12-18T00:24:51;20.33;;;13.77;;
68653;SDS011;55636;51.108;13.622;2022-12-18T00:25:54;21.67;;;15.20;;
68653;SDS011;55636;51.108;13.622;2022-12-18T00:26:56;23.20;;;15.25;;
68653;SDS011;55636;51.108;13.622;2022-12-18T00:27:58;22.90;;;15.57;;
68653;SDS011;55636;51.108;13.622;2022-12-18T00:29:02;25.45;;;16.52;;
68653;SDS011;55636;51.108;13.622;2022-12-18T00:30:07;23.02;;;15.75;;
68653;SDS011;55636;51.108;13.622;2022-12-18T00:31:12;23.80;;;16.52;;
68653;SDS011;55636;51.108;13.622;2022-12-18T00:32:19;22.63;;;16.27;;
68653;SDS011;55636;51.108;13.622;2022-12-18T00:33:22;23.67;;;16.17;;
68653;SDS011;55636;51.108;13.622;2022-12-18T00:34:24;24.63;;;17.08;;
68653;SDS011;55636;51.108;13.622;2022-12-18T00:35:26;26.02;;;18.95;;
68653;SDS011;55636;51.108;13.622;2022-12-18T00:36:30;30.70;;;18.90;;
68653;SDS011;55636;51.108;13.622;2022-12-18T00:37:35;26.02;;;17.92;;
68653;SDS011;55636;51.108;13.622;2022-12-18T00:38:43;24.60;;;17.50;;
68653;SDS011;55636;51.108;13.622;2022-12-18T00:39:47;27.25;;;18.35;;
68653;SDS011;55636;51.108;13.622;2022-12-18T00:40:49;27.45;;;17.55;;
68653;SDS011;55636;51.108;13.622;2022-12-18T00:41:52;29.13;;;18.85;;
68653;SDS011;55636;51.108;13.622;2022-12-18T00:43:13;26.13;;;18.02;;
68653;SDS011;55636;51.108;13.622;2022-12-18T00:44:19;28.88;;;18.88;;
68653;SDS011;55636;51.108;13.622;2022-12-18T00:45:25;28.08;;;18.33;;
68653;SDS011;55636;51.108;13.622;2022-12-18T00:46:37;27.10;;;17.80;;
68653;SDS011;55636;51.108;13.622;2022-12-18T00:47:39;28.25;;;18.48;;
68653;SDS011;55636;51.108;13.622;2022-12-18T00:48:48;27.70;;;18.40;;
68653;SDS011;55636;51.108;13.622;2022-12-18T00:49:50;23.90;;;16.90;;
68653;SDS011;55636;51.108;13.622;2022-12-18T00:50:53;29.30;;;17.40;;
68653;SDS011;55636;51.108;13.622;2022-12-18T00:51:55;25.25;;;16.27;;
68653;SDS011;55636;51.108;13.622;2022-12-18T00:52:57;25.55;;;16.42;;
68653;SDS011;55636;51.108;13.622;2022-12-18T00:53:59;22.80;;;15.35;;
68653;SDS011;55636;51.108;13.622;2022-12-18T00:55:02;23.45;;;15.93;;
68653;SDS011;55636;51.108;13.622;2022-12-18T00:56:07;24.08;;;16.05;;
68653;SDS011;55636;51.108;13.622;2022-12-18T00:57:09;23.58;;;16.63;;
68653;SDS011;55636;51.108;13.622;2022-12-18T00:58:12;25.30;;;16.42;;
68653;SDS011;55636;51.108;13.622;2022-12-18T00:59:16;22.08;;;15.45;;
68653;SDS011;55636;51.108;13.622;2022-12-18T01:00:19;24.25;;;16.05;;
68653;SDS011;55636;51.108;13.622;2022-12-18T01:01:22;24.10;;;16.05;;
68653;SDS011;55636;51.108;13.622;2022-12-18T01:02:27;23.98;;;16.23;;
68653;SDS011;55636;51.108;13.622;2022-12-18T01:03:29;23.67;;;16.23;;
68653;SDS011;55636;51.108;13.622;2022-12-18T01:04:41;23.45;;;15.60;;
68653;SDS011;55636;51.108;13.622;2022-12-18T01:05:44;22.40;;;15.80;;
68653;SDS011;55636;51.108;13.622;2022-12-18T01:06:46;26.27;;;15.27;;
68653;SDS011;55636;51.108;13.622;2022-12-18T01:07:48;23.42;;;16.05;;
68653;SDS011;55636;51.108;13.622;2022-12-18T01:08:50;22.45;;;15.85;;
68653;SDS011;55636;51.108;13.622;2022-12-18T01:09:53;23.40;;;15.90;;
68653;SDS011;55636;51.108;13.622;2022-12-18T01:10:55;24.25;;;15.93;;
68653;SDS011;55636;51.108;13.622;2022-12-18T01:11:57;25.83;;;16.08;;
68653;SDS011;55636;51.108;13.622;2022-12-18T01:13:00;23.23;;;16.02;;
68653;SDS011;55636;51.108;13.622;2022-12-18T01:14:05;27.17;;;16.70;;
68653;SDS011;55636;51.108;13.622;2022-12-18T01:15:09;23.98;;;16.50;;
68653;SDS011;55636;51.108;13.622;2022-12-18T01:16:13;25.08;;;16.50;;
68653;SDS011;55636;51.108;13.622;2022-12-18T01:17:17;24.17;;;16.65;;
68653;SDS011;55636;51.108;13.622;2022-12-18T01:18:25;24.33;;;15.25;;
68653;SDS011;55636;51.108;13.622;2022-12-18T01:19:27;24.77;;;16.25;;
68653;SDS011;55636;51.108;13.622;2022-12-18T01:20:29;24.02;;;16.42;;
68653;SDS011;55636;51.108;13.622;2022-12-18T01:21:32;26.42;;;16.20;;
68653;SDS011;55636;51.108;13.622;2022-12-18T01:22:38;22.98;;;15.52;;
68653;SDS011;55636;51.108;13.622;2022-12-18T01:23:41;23.73;;;16.17;;
68653;SDS011;55636;51.108;13.622;2022-12-18T01:24:44;23.00;;;16.08;;
68653;SDS011;55636;51.108;13.622;2022-12-18T01:25:46;25.20;;;16.40;;
68653;SDS011;55636;51.108;13.622;2022-12-18T01:26:48;22.85;;;15.85;;
68653;SDS011;55636;51.108;13.622;2022-12-18T01:27:50;22.55;;;15.02;;
68653;SDS011;55636;51.108;13.622;2022-12-18T01:28:54;24.55;;;16.13;;
68653;SDS011;55636;51.108;13.622;2022-12-18T01:29:57;23.10;;;15.13;;
68653;SDS011;55636;51.108;13.622;2022-12-18T01:31:10;22.65;;;15.57;;
68653;SDS011;55636;51.108;13.622;2022-12-18T01:32:18;23.77;;;15.35;;
68653;SDS011;55636;51.108;13.622;2022-12-18T01:33:21;23.20;;;15.98;;
68653;SDS011;55636;51.108;13.622;2022-12-18T01:34:23;25.52;;;16.10;;
68653;SDS011;55636;51.108;13.622;2022-12-18T01:35:29;22.67;;;15.68;;
68653;SDS011;55636;51.108;13.622;2022-12-18T01:36:34;25.20;;;16.33;;
68653;SDS011;55636;51.108;13.622;2022-12-18T01:37:38;24.02;;;15.73;;
68653;SDS011;55636;51.108;13.622;2022-12-18T01:38:40;25.23;;;15.65;;
68653;SDS011;55636;51.108;13.622;2022-12-18T01:39:43;23.95;;;15.90;;
68653;SDS011;55636;51.108;13.622;2022-12-18T01:40:45;24.52;;;16.65;;
68653;SDS011;55636;51.108;13.622;2022-12-18T01:41:47;25.10;;;16.27;;
68653;SDS011;55636;51.108;13.622;2022-12-18T01:43:14;24.88;;;15.75;;
68653;SDS011;55636;51.108;13.622;2022-12-18T01:45:51;26.63;;;16.48;;
68653;SDS011;55636;51.108;13.622;2022-12-18T01:46:54;25.13;;;16.55;;
68653;SDS011;55636;51.108;13.622;2022-12-18T01:48:00;25.98;;;17.33;;
68653;SDS011;55636;51.108;13.622;2022-12-18T01:49:08;23.58;;;15.90;;
68653;SDS011;55636;51.108;13.622;2022-12-18T01:50:17;24.10;;;16.42;;
68653;SDS011;55636;51.108;13.622;2022-12-18T01:51:21;24.92;;;16.63;;
68653;SDS011;55636;51.108;13.622;2022-12-18T01:52:24;27.50;;;16.67;;
68653;SDS011;55636;51.108;13.622;2022-12-18T01:53:28;25.88;;;16.55;;
68653;SDS011;55636;51.108;13.622;2022-12-18T01:54:32;28.88;;;17.85;;
68653;SDS011;55636;51.108;13.622;2022-12-18T01:56:51;26.00;;;17.40;;
68653;SDS011;55636;51.108;13.622;2022-12-18T01:57:55;26.58;;;17.25;;
68653;SDS011;55636;51.108;13.622;2022-12-18T01:59:04;28.52;;;17.58;;
68653;SDS011;55636;51.108;13.622;2022-12-18T02:00:11;28.58;;;17.33;;
68653;SDS011;55636;51.108;13.622;2022-12-18T02:01:19;28.92;;;17.48;;
68653;SDS011;55636;51.108;13.622;2022-12-18T02:02:24;27.15;;;17.88;;
68653;SDS011;55636;51.108;13.622;2022-12-18T02:03:31;27.73;;;16.92;;
68653;SDS011;55636;51.108;13.622;2022-12-18T02:04:34;26.20;;;17.00;;
68653;SDS011;55636;51.108;13.622;2022-12-18T02:05:40;25.42;;;16.80;;
68653;SDS011;55636;51.108;13.622;2022-12-18T02:06:51;27.85;;;17.00;;
68653;SDS011;55636;51.108;13.622;2022-12-18T02:09:23;25.80;;;16.35;;
68653;SDS011;55636;51.108;13.622;2022-12-18T02:10:34;26.98;;;16.27;;
68653;SDS011;55636;51.108;13.622;2022-12-18T02:12:00;23.95;;;15.55;;
68653;SDS011;55636;51.108;13.622;2022-12-18T02:14:18;24.88;;;16.33;;
68653;SDS011;55636;51.108;13.622;2022-12-18T02:15:30;24.85;;;15.75;;
68653;SDS011;55636;51.108;13.622;2022-12-18T02:18:01;25.25;;;15.93;;
68653;SDS011;55636;51.108;13.622;2022-12-18T02:20:34;25.27;;;15.60;;
68653;SDS011;55636;51.108;13.622;2022-12-18T02:24:42;23.50;;;14.77;;
68653;SDS011;55636;51.108;13.622;2022-12-18T02:27:10;22.15;;;14.82;;
68653;SDS011;55636;51.108;13.622;2022-12-18T02:28:15;23.27;;;15.35;;
68653;SDS011;55636;51.108;13.622;2022-12-18T02:29:31;24.27;;;15.80;;
68653;SDS011;55636;51.108;13.622;2022-12-18T02:31:06;23.02;;;14.48;;
68653;SDS011;55636;51.108;13.622;2022-12-18T02:32:23;21.70;;;14.35;;
68653;SDS011;55636;51.108;13.622;2022-12-18T02:33:29;25.02;;;15.15;;
68653;SDS011;55636;51.108;13.622;2022-12-18T02:34:34;23.92;;;14.88;;
68653;SDS011;55636;51.108;13.622;2022-12-18T02:35:42;22.58;;;14.88;;
68653;SDS011;55636;51.108;13.622;2022-12-18T02:36:46;22.75;;;14.60;;
68653;SDS011;55636;51.108;13.622;2022-12-18T02:37:52;22.88;;;14.35;;
68653;SDS011;55636;51.108;13.622;2022-12-18T02:38:56;22.70;;;14.60;;
68653;SDS011;55636;51.108;13.622;2022-12-18T02:40:00;22.15;;;13.70;;
68653;SDS011;55636;51.108;13.622;2022-12-18T02:41:11;23.38;;;14.50;;
68653;SDS011;55636;51.108;13.622;2022-12-18T02:42:15;24.20;;;14.82;;
68653;SDS011;55636;51.108;13.622;2022-12-18T02:43:19;21.23;;;14.73;;
68653;SDS011;55636;51.108;13.622;2022-12-18T02:44:21;23.40;;;15.40;;
68653;SDS011;55636;51.108;13.622;2022-12-18T02:45:24;21.40;;;14.38;;
68653;SDS011;55636;51.108;13.622;2022-12-18T02:46:28;23.80;;;14.95;;
68653;SDS011;55636;51.108;13.622;2022-12-18T02:47:36;21.80;;;13.73;;
68653;SDS011;55636;51.108;13.622;2022-12-18T02:48:41;20.05;;;13.40;;
68653;SDS011;55636;51.108;13.622;2022-12-18T02:51:18;21.60;;;14.32;;
68653;SDS011;55636;51.108;13.622;2022-12-18T02:52:42;22.20;;;14.35;;
68653;SDS011;55636;51.108;13.622;2022-12-18T02:53:58;22.75;;;13.82;;
68653;SDS011;55636;51.108;13.622;2022-12-18T02:56:20;20.05;;;13.20;;
68653;SDS011;55636;51.108;13.622;2022-12-18T02:57:34;20.77;;;13.15;;
68653;SDS011;55636;51.108;13.622;2022-12-18T02:58:47;20.23;;;13.20;;
68653;SDS011;55636;51.108;13.622;2022-12-18T03:00:16;20.40;;;13.10;;
68653;SDS011;55636;51.108;13.622;2022-12-18T03:04:16;18.83;;;12.35;;
68653;SDS011;55636;51.108;13.622;2022-12-18T03:05:24;20.95;;;12.48;;
68653;SDS011;55636;51.108;13.622;2022-12-18T03:06:46;18.48;;;12.23;;
68653;SDS011;55636;51.108;13.622;2022-12-18T03:09:06;20.27;;;12.60;;
68653;SDS011;55636;51.108;13.622;2022-12-18T03:10:13;20.75;;;12.38;;
68653;SDS011;55636;51.108;13.622;2022-12-18T03:11:19;19.83;;;12.82;;
68653;SDS011;55636;51.108;13.622;2022-12-18T03:12:47;17.80;;;12.13;;
68653;SDS011;55636;51.108;13.622;2022-12-18T03:13:55;20.08;;;12.98;;
68653;SDS011;55636;51.108;13.622;2022-12-18T03:15:04;19.45;;;12.55;;
68653;SDS011;55636;51.108;13.622;2022-12-18T03:16:28;19.15;;;11.90;;
68653;SDS011;55636;51.108;13.622;2022-12-18T03:17:33;20.30;;;12.23;;
68653;SDS011;55636;51.108;13.622;2022-12-18T03:18:50;19.65;;;12.68;;
68653;SDS011;55636;51.108;13.622;2022-12-18T03:20:00;18.88;;;11.73;;
68653;SDS011;55636;51.108;13.622;2022-12-18T03:21:07;18.92;;;11.38;;
68653;SDS011;55636;51.108;13.622;2022-12-18T03:22:14;16.95;;;11.93;;
68653;SDS011;55636;51.108;13.622;2022-12-18T03:23:24;20.55;;;12.38;;
68653;SDS011;55636;51.108;13.622;2022-12-18T03:24:29;18.75;;;12.70;;
68653;SDS011;55636;51.108;13.622;2022-12-18T03:25:34;20.15;;;12.45;;
68653;SDS011;55636;51.108;13.622;2022-12-18T03:26:43;18.55;;;11.70;;
68653;SDS011;55636;51.108;13.622;2022-12-18T03:27:51;18.67;;;12.10;;
68653;SDS011;55636;51.108;13.622;2022-12-18T03:29:06;15.40;;;10.13;;
68653;SDS011;55636;51.108;13.622;2022-12-18T03:30:12;17.33;;;11.50;;
68653;SDS011;55636;51.108;13.622;2022-12-18T03:31:39;16.48;;;10.93;;
68653;SDS011;55636;51.108;13.622;2022-12-18T03:34:14;17.55;;;11.57;;
68653;SDS011;55636;51.108;13.622;2022-12-18T03:35:22;17.50;;;10.77;;
68653;SDS011;55636;51.108;13.622;2022-12-18T03:36:29;16.70;;;11.07;;
68653;SDS011;55636;51.108;13.622;2022-12-18T03:37:31;17.02;;;11.07;;
68653;SDS011;55636;51.108;13.622;2022-12-18T03:38:34;19.05;;;11.63;;
68653;SDS011;55636;51.108;13.622;2022-12-18T03:39:41;16.83;;;11.07;;
68653;SDS011;55636;51.108;13.622;2022-12-18T03:40:56;18.42;;;10.88;;
68653;SDS011;55636;51.108;13.622;2022-12-18T03:42:15;16.00;;;10.98;;
68653;SDS011;55636;51.108;13.622;2022-12-18T03:45:07;16.35;;;10.18;;
68653;SDS011;55636;51.108;13.622;2022-12-18T03:46:33;16.20;;;10.27;;
68653;SDS011;55636;51.108;13.622;2022-12-18T03:47:56;15.90;;;10.18;;
68653;SDS011;55636;51.108;13.622;2022-12-18T03:49:09;16.38;;;10.07;;
68653;SDS011;55636;51.108;13.622;2022-12-18T03:50:20;16.10;;;10.70;;
68653;SDS011;55636;51.108;13.622;2022-12-18T03:51:43;19.33;;;10.55;;
68653;SDS011;55636;51.108;13.622;2022-12-18T03:52:58;14.70;;;9.80;;
68653;SDS011;55636;51.108;13.622;2022-12-18T03:54:08;17.83;;;9.95;;
68653;SDS011;55636;51.108;13.622;2022-12-18T03:55:17;14.60;;;10.20;;
68653;SDS011;55636;51.108;13.622;2022-12-18T03:56:26;15.65;;;10.13;;
68653;SDS011;55636;51.108;13.622;2022-12-18T03:57:35;15.48;;;9.98;;
68653;SDS011;55636;51.108;13.622;2022-12-18T03:58:40;15.18;;;9.90;;
68653;SDS011;55636;51.108;13.622;2022-12-18T03:59:56;15.73;;;10.52;;
68653;SDS011;55636;51.108;13.622;2022-12-18T04:01:14;15.23;;;9.93;;
68653;SDS011;55636;51.108;13.622;2022-12-18T04:02:20;15.75;;;10.13;;
68653;SDS011;55636;51.108;13.622;2022-12-18T04:03:25;15.80;;;9.80;;
68653;SDS011;55636;51.108;13.622;2022-12-18T04:04:31;15.73;;;10.02;;
68653;SDS011;55636;51.108;13.622;2022-12-18T04:05:37;16.02;;;9.85;;
68653;SDS011;55636;51.108;13.622;2022-12-18T04:06:41;16.33;;;10.00;;
68653;SDS011;55636;51.108;13.622;2022-12-18T04:07:47;14.18;;;9.88;;
68653;SDS011;55636;51.108;13.622;2022-12-18T04:08:57;14.13;;;9.60;;
68653;SDS011;55636;51.108;13.622;2022-12-18T04:10:01;14.60;;;9.57;;
68653;SDS011;55636;51.108;13.622;2022-12-18T04:11:06;13.82;;;9.90;;
68653;SDS011;55636;51.108;13.622;2022-12-18T04:12:08;16.67;;;9.65;;
68653;SDS011;55636;51.108;13.622;2022-12-18T04:13:21;15.02;;;9.88;;
68653;SDS011;55636;51.108;13.622;2022-12-18T04:14:24;14.65;;;9.98;;
68653;SDS011;55636;51.108;13.622;2022-12-18T04:15:30;15.75;;;9.95;;
68653;SDS011;55636;51.108;13.622;2022-12-18T04:16:37;14.93;;;9.85;;
68653;SDS011;55636;51.108;13.622;2022-12-18T04:17:46;13.23;;;8.75;;
68653;SDS011;55636;51.108;13.622;2022-12-18T04:18:53;13.73;;;9.93;;
68653;SDS011;55636;51.108;13.622;2022-12-18T04:19:58;14.13;;;9.13;;
68653;SDS011;55636;51.108;13.622;2022-12-18T04:21:01;14.70;;;9.10;;
68653;SDS011;55636;51.108;13.622;2022-12-18T04:22:08;16.42;;;10.07;;
68653;SDS011;55636;51.108;13.622;2022-12-18T04:23:17;14.38;;;9.95;;
68653;SDS011;55636;51.108;13.622;2022-12-18T04:24:20;13.90;;;9.73;;
68653;SDS011;55636;51.108;13.622;2022-12-18T04:25:36;13.63;;;9.30;;
68653;SDS011;55636;51.108;13.622;2022-12-18T04:26:42;16.05;;;10.07;;
68653;SDS011;55636;51.108;13.622;2022-12-18T04:27:49;16.55;;;10.45;;
68653;SDS011;55636;51.108;13.622;2022-12-18T04:28:52;15.25;;;10.15;;
68653;SDS011;55636;51.108;13.622;2022-12-18T04:29:55;15.38;;;9.65;;
68653;SDS011;55636;51.108;13.622;2022-12-18T04:30:57;15.52;;;9.68;;
68653;SDS011;55636;51.108;13.622;2022-12-18T04:31:59;15.68;;;9.80;;
68653;SDS011;55636;51.108;13.622;2022-12-18T04:33:07;16.55;;;9.85;;
68653;SDS011;55636;51.108;13.622;2022-12-18T04:34:12;16.00;;;10.00;;
68653;SDS011;55636;51.108;13.622;2022-12-18T04:35:21;15.50;;;10.05;;
68653;SDS011;55636;51.108;13.622;2022-12-18T04:36:25;13.48;;;9.00;;
68653;SDS011;55636;51.108;13.622;2022-12-18T04:37:28;14.10;;;9.30;;
68653;SDS011;55636;51.108;13.622;2022-12-18T04:38:31;14.88;;;9.40;;
68653;SDS011;55636;51.108;13.622;2022-12-18T04:39:51;15.27;;;9.80;;
68653;SDS011;55636;51.108;13.622;2022-12-18T04:41:00;12.88;;;9.10;;
68653;SDS011;55636;51.108;13.622;2022-12-18T04:42:06;14.23;;;8.98;;
68653;SDS011;55636;51.108;13.622;2022-12-18T04:43:09;13.50;;;9.10;;
68653;SDS011;55636;51.108;13.622;2022-12-18T04:44:13;14.88;;;9.80;;
68653;SDS011;55636;51.108;13.622;2022-12-18T04:45:18;15.32;;;8.98;;
68653;SDS011;55636;51.108;13.622;2022-12-18T04:46:20;14.50;;;9.25;;
68653;SDS011;55636;51.108;13.622;2022-12-18T04:47:23;13.68;;;9.15;;
68653;SDS011;55636;51.108;13.622;2022-12-18T04:48:28;12.85;;;9.13;;
68653;SDS011;55636;51.108;13.622;2022-12-18T04:49:31;11.60;;;8.60;;
68653;SDS011;55636;51.108;13.622;2022-12-18T04:50:33;13.05;;;8.98;;
68653;SDS011;55636;51.108;13.622;2022-12-18T04:51:36;14.32;;;8.98;;
68653;SDS011;55636;51.108;13.622;2022-12-18T04:52:48;13.30;;;8.70;;
68653;SDS011;55636;51.108;13.622;2022-12-18T04:53:50;14.05;;;9.27;;
68653;SDS011;55636;51.108;13.622;2022-12-18T04:54:56;16.15;;;9.55;;
68653;SDS011;55636;51.108;13.622;2022-12-18T04:56:02;13.85;;;9.50;;
68653;SDS011;55636;51.108;13.622;2022-12-18T04:57:07;14.20;;;8.98;;
68653;SDS011;55636;51.108;13.622;2022-12-18T04:58:13;15.73;;;9.73;;
68653;SDS011;55636;51.108;13.622;2022-12-18T04:59:28;12.32;;;8.52;;
68653;SDS011;55636;51.108;13.622;2022-12-18T05:00:33;13.40;;;9.07;;
68653;SDS011;55636;51.108;13.622;2022-12-18T05:01:35;14.45;;;8.70;;
68653;SDS011;55636;51.108;13.622;2022-12-18T05:02:38;13.82;;;8.55;;
68653;SDS011;55636;51.108;13.622;2022-12-18T05:03:41;14.52;;;9.27;;
68653;SDS011;55636;51.108;13.622;2022-12-18T05:04:44;12.95;;;8.52;;
68653;SDS011;55636;51.108;13.622;2022-12-18T05:05:49;12.68;;;8.48;;
68653;SDS011;55636;51.108;13.622;2022-12-18T05:06:52;12.25;;;8.35;;
68653;SDS011;55636;51.108;13.622;2022-12-18T05:07:55;12.07;;;8.55;;
68653;SDS011;55636;51.108;13.622;2022-12-18T05:08:57;11.95;;;8.43;;
68653;SDS011;55636;51.108;13.622;2022-12-18T05:10:00;12.77;;;8.50;;
68653;SDS011;55636;51.108;13.622;2022-12-18T05:11:06;15.25;;;8.98;;
68653;SDS011;55636;51.108;13.622;2022-12-18T05:12:13;14.05;;;9.30;;
68653;SDS011;55636;51.108;13.622;2022-12-18T05:13:16;11.75;;;8.38;;
68653;SDS011;55636;51.108;13.622;2022-12-18T05:14:19;13.48;;;8.85;;
68653;SDS011;55636;51.108;13.622;2022-12-18T05:15:22;12.85;;;8.95;;
68653;SDS011;55636;51.108;13.622;2022-12-18T05:16:24;13.50;;;8.52;;
68653;SDS011;55636;51.108;13.622;2022-12-18T05:17:52;11.50;;;8.10;;
68653;SDS011;55636;51.108;13.622;2022-12-18T05:18:59;12.20;;;8.30;;
68653;SDS011;55636;51.108;13.622;2022-12-18T05:20:01;13.80;;;8.70;;
68653;SDS011;55636;51.108;13.622;2022-12-18T05:21:04;11.70;;;7.65;;
68653;SDS011;55636;51.108;13.622;2022-12-18T05:22:06;12.85;;;8.52;;
68653;SDS011;55636;51.108;13.622;2022-12-18T05:23:09;13.57;;;8.18;;
68653;SDS011;55636;51.108;13.622;2022-12-18T05:24:11;12.55;;;8.48;;
68653;SDS011;55636;51.108;13.622;2022-12-18T05:25:17;13.80;;;9.00;;
68653;SDS011;55636;51.108;13.622;2022-12-18T05:26:20;12.00;;;8.57;;
68653;SDS011;55636;51.108;13.622;2022-12-18T05:27:22;13.00;;;8.68;;
68653;SDS011;55636;51.108;13.622;2022-12-18T05:28:25;11.63;;;8.30;;
68653;SDS011;55636;51.108;13.622;2022-12-18T05:29:28;13.38;;;7.85;;
68653;SDS011;55636;51.108;13.622;2022-12-18T05:30:31;12.90;;;8.55;;
68653;SDS011;55636;51.108;13.622;2022-12-18T05:31:34;12.73;;;8.38;;
68653;SDS011;55636;51.108;13.622;2022-12-18T05:32:43;12.18;;;8.10;;
68653;SDS011;55636;51.108;13.622;2022-12-18T05:33:48;14.27;;;8.57;;
68653;SDS011;55636;51.108;13.622;2022-12-18T05:34:50;13.15;;;8.35;;
68653;SDS011;55636;51.108;13.622;2022-12-18T05:35:53;13.68;;;8.50;;
68653;SDS011;55636;51.108;13.622;2022-12-18T05:36:57;12.90;;;7.95;;
68653;SDS011;55636;51.108;13.622;2022-12-18T05:38:04;11.85;;;7.80;;
68653;SDS011;55636;51.108;13.622;2022-12-18T05:39:20;12.48;;;8.00;;
68653;SDS011;55636;51.108;13.622;2022-12-18T05:40:26;13.05;;;7.55;;
68653;SDS011;55636;51.108;13.622;2022-12-18T05:41:29;11.68;;;7.80;;
68653;SDS011;55636;51.108;13.622;2022-12-18T05:42:31;11.30;;;7.85;;
68653;SDS011;55636;51.108;13.622;2022-12-18T05:43:34;13.30;;;7.93;;
68653;SDS011;55636;51.108;13.622;2022-12-18T05:44:39;11.88;;;7.93;;
68653;SDS011;55636;51.108;13.622;2022-12-18T05:45:41;15.27;;;8.27;;
68653;SDS011;55636;51.108;13.622;2022-12-18T05:46:44;10.15;;;6.68;;
68653;SDS011;55636;51.108;13.622;2022-12-18T05:47:48;10.93;;;7.60;;
68653;SDS011;55636;51.108;13.622;2022-12-18T05:48:50;9.57;;;7.20;;
68653;SDS011;55636;51.108;13.622;2022-12-18T05:49:56;12.50;;;7.85;;
68653;SDS011;55636;51.108;13.622;2022-12-18T05:51:03;11.40;;;7.60;;
68653;SDS011;55636;51.108;13.622;2022-12-18T05:52:08;11.85;;;7.45;;
68653;SDS011;55636;51.108;13.622;2022-12-18T05:53:11;11.25;;;7.25;;
68653;SDS011;55636;51.108;13.622;2022-12-18T05:54:14;11.23;;;7.53;;
68653;SDS011;55636;51.108;13.622;2022-12-18T05:55:18;11.13;;;6.97;;
68653;SDS011;55636;51.108;13.622;2022-12-18T05:56:21;11.90;;;7.75;;
68653;SDS011;55636;51.108;13.622;2022-12-18T05:57:33;11.30;;;7.53;;
68653;SDS011;55636;51.108;13.622;2022-12-18T05:58:41;12.15;;;7.18;;
68653;SDS011;55636;51.108;13.622;2022-12-18T05:59:43;10.88;;;7.43;;
68653;SDS011;55636;51.108;13.622;2022-12-18T06:00:46;9.85;;;7.25;;
68653;SDS011;55636;51.108;13.622;2022-12-18T06:01:48;10.35;;;7.22;;
68653;SDS011;55636;51.108;13.622;2022-12-18T06:02:51;10.65;;;7.13;;
68653;SDS011;55636;51.108;13.622;2022-12-18T06:03:53;11.95;;;7.30;;
68653;SDS011;55636;51.108;13.622;2022-12-18T06:04:57;9.98;;;7.00;;
68653;SDS011;55636;51.108;13.622;2022-12-18T06:05:59;10.82;;;6.97;;
68653;SDS011;55636;51.108;13.622;2022-12-18T06:07:05;12.00;;;7.38;;
68653;SDS011;55636;51.108;13.622;2022-12-18T06:08:07;10.02;;;6.97;;
68653;SDS011;55636;51.108;13.622;2022-12-18T06:09:10;10.82;;;7.25;;
68653;SDS011;55636;51.108;13.622;2022-12-18T06:10:13;11.25;;;7.25;;
68653;SDS011;55636;51.108;13.622;2022-12-18T06:11:18;11.50;;;7.40;;
68653;SDS011;55636;51.108;13.622;2022-12-18T06:12:22;11.48;;;6.90;;
68653;SDS011;55636;51.108;13.622;2022-12-18T06:13:26;10.80;;;7.00;;
68653;SDS011;55636;51.108;13.622;2022-12-18T06:14:30;10.98;;;7.10;;
68653;SDS011;55636;51.108;13.622;2022-12-18T06:15:35;12.10;;;7.53;;
68653;SDS011;55636;51.108;13.622;2022-12-18T06:16:38;10.98;;;7.05;;
68653;SDS011;55636;51.108;13.622;2022-12-18T06:17:41;10.95;;;7.18;;
68653;SDS011;55636;51.108;13.622;2022-12-18T06:18:46;8.85;;;6.68;;
68653;SDS011;55636;51.108;13.622;2022-12-18T06:19:48;10.63;;;6.97;;
68653;SDS011;55636;51.108;13.622;2022-12-18T06:20:56;9.90;;;6.85;;
68653;SDS011;55636;51.108;13.622;2022-12-18T06:22:00;9.82;;;6.30;;
68653;SDS011;55636;51.108;13.622;2022-12-18T06:23:03;11.23;;;7.20;;
68653;SDS011;55636;51.108;13.622;2022-12-18T06:24:08;10.50;;;6.97;;
68653;SDS011;55636;51.108;13.622;2022-12-18T06:25:17;9.45;;;6.47;;
68653;SDS011;55636;51.108;13.622;2022-12-18T06:26:20;11.25;;;7.40;;
68653;SDS011;55636;51.108;13.622;2022-12-18T06:27:29;10.48;;;7.05;;
68653;SDS011;55636;51.108;13.622;2022-12-18T06:28:31;10.48;;;7.07;;
68653;SDS011;55636;51.108;13.622;2022-12-18T06:29:33;9.80;;;6.82;;
68653;SDS011;55636;51.108;13.622;2022-12-18T06:30:36;11.45;;;7.47;;
68653;SDS011;55636;51.108;13.622;2022-12-18T06:31:38;10.32;;;6.90;;
68653;SDS011;55636;51.108;13.622;2022-12-18T06:32:41;11.77;;;7.47;;
68653;SDS011;55636;51.108;13.622;2022-12-18T06:33:49;10.48;;;7.10;;
68653;SDS011;55636;51.108;13.622;2022-12-18T06:34:51;10.77;;;7.18;;
68653;SDS011;55636;51.108;13.622;2022-12-18T06:35:59;9.20;;;6.75;;
68653;SDS011;55636;51.108;13.622;2022-12-18T06:37:06;11.05;;;7.20;;
68653;SDS011;55636;51.108;13.622;2022-12-18T06:38:09;10.38;;;6.97;;
68653;SDS011;55636;51.108;13.622;2022-12-18T06:39:17;10.85;;;7.55;;
68653;SDS011;55636;51.108;13.622;2022-12-18T06:40:19;9.38;;;6.60;;
68653;SDS011;55636;51.108;13.622;2022-12-18T06:41:24;9.90;;;6.85;;
68653;SDS011;55636;51.108;13.622;2022-12-18T06:42:28;11.90;;;7.45;;
68653;SDS011;55636;51.108;13.622;2022-12-18T06:43:30;11.05;;;6.93;;
68653;SDS011;55636;51.108;13.622;2022-12-18T06:44:33;12.43;;;7.07;;
68653;SDS011;55636;51.108;13.622;2022-12-18T06:45:35;9.50;;;6.72;;